Time;durP1;ratioP1;P1;durP2;ratioP2;P2;SDS_P1;SDS_P2;PMS_P1;PMS_P2;Temp;Humidity;BMP_temperature;BMP_pressure;BME280_temperature;BME280_humidity;BME280_pressure;Samples;Min_cycle;Max_cycle;Signal;HPM_P1;HPM_P2
2023/08/23 00:00:10;;;;;;;2.67;1.25;;;22.40;99.90;;;22.67;65.97;101634.94;4943546;28;97965;-76
2023/08/23 00:02:36;;;;;;;2.03;1.57;;;22.40;99.90;;;22.67;66.14;101632.25;4923189;28;99890;-75
2023/08/23 00:05:02;;;;;;;1.20;0.93;;;22.40;99.90;;;22.67;66.02;101632.25;4952750;28;112211;-76
2023/08/23 00:07:28;;;;;;;0.90;0.90;;;22.50;99.90;;;22.69;65.96;101630.31;4929283;28;96943;-76
2023/08/23 00:09:54;;;;;;;2.33;1.80;;;22.50;99.90;;;22.67;63.52;101634.94;4945820;28;105480;-76
2023/08/23 00:12:20;;;;;;;2.07;1.43;;;22.50;99.90;;;22.66;64.56;101633.22;4944738;28;104441;-76
2023/08/23 00:14:46;;;;;;;2.40;1.93;;;22.40;99.90;;;22.60;62.45;101633.69;4939638;28;97389;-76
2023/08/23 00:17:11;;;;;;;3.03;1.40;;;22.20;99.90;;;22.58;64.61;101635.63;4938330;28;97278;-76
2023/08/23 00:19:37;;;;;;;1.63;1.23;;;22.20;99.90;;;22.55;65.76;101625.91;4941212;28;113812;-76
2023/08/23 00:22:03;;;;;;;3.83;1.57;;;22.20;99.90;;;22.54;65.77;101623.34;4939902;28;105264;-77
2023/08/23 00:24:29;;;;;;;1.67;1.10;;;22.20;99.90;;;22.54;66.66;101623.34;4942398;28;97185;-76
2023/08/23 00:26:55;;;;;;;1.77;1.23;;;22.20;99.90;;;22.56;66.53;101621.38;4948398;28;97295;-76
2023/08/23 00:29:22;;;;;;;2.13;1.67;;;22.30;99.90;;;22.57;66.67;101623.13;4949639;28;97121;-76
2023/08/23 00:31:48;;;;;;;1.23;1.10;;;22.30;99.90;;;22.58;65.55;101614.09;4923642;28;98933;-76
2023/08/23 00:34:13;;;;;;;2.27;1.57;;;22.30;99.90;;;22.59;65.66;101615.81;4936118;28;105220;-75
2023/08/23 00:36:39;;;;;;;2.03;1.60;;;22.30;99.90;;;22.58;64.83;101615.94;4940566;28;96757;-75
2023/08/23 00:39:05;;;;;;;1.23;1.13;;;22.30;99.90;;;22.56;64.85;101621.38;4922561;28;105086;-76
2023/08/23 00:41:30;;;;;;;1.40;1.20;;;22.20;99.90;;;22.53;64.70;101608.16;4943651;28;101684;-76
2023/08/23 00:43:56;;;;;;;1.53;1.30;;;22.20;99.90;;;22.51;64.54;101615.50;4942841;28;97056;-76
2023/08/23 00:46:23;;;;;;;2.60;1.50;;;22.20;99.90;;;22.47;65.02;101611.31;4929231;28;97194;-76
2023/08/23 00:48:50;;;;;;;2.90;2.10;;;22.10;99.90;;;22.39;61.98;101609.16;4938525;28;109269;-76
2023/08/23 00:51:17;;;;;;;1.27;1.17;;;22.00;99.90;;;22.33;65.08;101614.09;4942834;28;98576;-76
2023/08/23 00:53:43;;;;;;;1.93;1.50;;;21.90;99.90;;;22.30;64.46;101617.00;4936298;28;97466;-75
2023/08/23 00:56:09;;;;;;;3.20;2.00;;;21.80;99.90;;;22.21;62.76;101616.66;4939378;28;97419;-77
2023/08/23 00:58:35;;;;;;;3.03;1.60;;;21.70;99.90;;;22.15;65.46;101627.84;4939810;28;100157;-76
2023/08/23 01:01:01;;;;;;;1.33;1.03;;;21.60;99.90;;;22.17;67.82;101625.91;4922322;28;103781;-76
2023/08/23 01:03:27;;;;;;;2.27;1.87;;;21.70;99.90;;;22.17;63.34;101619.69;4943265;28;97173;-76
2023/08/23 01:06:45;;;;;;;2.77;2.13;;;21.70;99.90;;;22.13;65.68;101616.34;4942858;28;99282;-76
2023/08/23 01:09:49;;;;;;;2.20;1.40;;;21.60;99.90;;;22.16;67.88;101612.59;4931110;28;100942;-76
2023/08/23 01:12:34;;;;;;;1.33;1.17;;;21.70;99.90;;;22.23;67.78;101620.09;4936019;28;100227;-76
2023/08/23 01:15:07;;;;;;;1.10;0.90;;;21.90;99.90;;;22.30;67.58;101615.19;4937165;28;97461;-76
2023/08/23 01:17:41;;;;;;;1.10;1.00;;;22.00;99.90;;;22.35;67.52;101622.91;4940889;28;96912;-77
2023/08/23 01:20:10;;;;;;;2.00;1.57;;;22.10;99.90;;;22.41;67.17;101623.34;4949843;28;102170;-76
2023/08/23 01:22:41;;;;;;;1.80;1.40;;;22.20;99.90;;;22.47;66.95;101616.69;4934655;28;97288;-77
2023/08/23 01:25:07;;;;;;;1.83;1.03;;;22.30;99.90;;;22.46;63.46;101614.97;4924097;28;97059;-76
2023/08/23 01:27:34;;;;;;;2.23;1.40;;;22.20;99.90;;;22.44;66.88;101619.59;4920816;28;97043;-76
2023/08/23 01:30:00;;;;;;;1.30;1.20;;;22.20;99.90;;;22.43;66.19;101616.06;4922085;28;108910;-76
2023/08/23 01:32:48;;;;;;;1.60;1.30;;;22.10;99.90;;;22.47;67.09;101616.69;4919946;28;109606;-76
2023/08/23 01:35:33;;;;;;;1.27;1.07;;;22.20;99.90;;;22.49;66.86;101620.13;4923705;28;96964;-76
2023/08/23 01:38:03;;;;;;;2.47;1.50;;;22.20;99.90;;;22.50;65.15;101621.84;4957819;28;97071;-76
2023/08/23 01:40:30;;;;;;;1.07;0.90;;;22.30;99.90;;;22.46;66.66;101615.81;4922823;28;133242;-76
2023/08/23 01:42:57;;;;;;;0.93;0.90;;;22.20;99.90;;;22.48;66.97;101607.66;4918720;28;99297;-76
2023/08/23 01:45:22;;;;;;;1.60;1.30;;;22.20;99.90;;;22.52;65.83;101606.44;4915549;28;97211;-76
2023/08/23 01:47:49;;;;;;;1.57;1.20;;;22.30;99.90;;;22.55;66.92;101609.78;4948431;28;99908;-76
2023/08/23 01:50:15;;;;;;;3.33;2.13;;;22.40;99.90;;;22.54;61.90;101596.44;4938673;28;100485;-76
2023/08/23 01:52:41;;;;;;;2.17;1.53;;;22.30;99.90;;;22.50;64.64;101595.81;4939481;28;116691;-76
2023/08/23 01:55:07;;;;;;;2.60;1.63;;;22.20;99.90;;;22.46;65.54;101588.94;4947528;28;98230;-77
2023/08/23 01:57:33;;;;;;;2.17;1.80;;;22.20;99.90;;;22.45;65.76;101591.75;4942652;28;97591;-76
2023/08/23 01:59:59;;;;;;;1.40;1.30;;;22.10;99.90;;;22.46;66.78;101588.09;4941204;28;97622;-76
2023/08/23 02:02:24;;;;;;;1.47;1.10;;;22.10;99.90;;;22.48;66.88;101591.53;4937755;28;108761;-76
2023/08/23 02:04:50;;;;;;;2.40;1.47;;;22.20;99.90;;;22.47;65.36;101590.66;4945392;28;103494;-76
2023/08/23 02:07:16;;;;;;;2.80;2.03;;;22.20;99.90;;;22.42;60.49;101591.94;4939470;28;97586;-76
2023/08/23 02:09:42;;;;;;;3.43;2.57;;;22.10;99.90;;;22.27;62.21;101591.19;4940172;28;117982;-75
2023/08/23 02:12:08;;;;;;;1.80;1.40;;;21.90;99.90;;;22.23;65.14;101598.59;4943033;28;106835;-76
2023/08/23 02:14:33;;;;;;;2.20;1.63;;;21.70;99.90;;;22.23;67.17;101603.97;4940120;28;109313;-76
2023/08/23 02:16:59;;;;;;;3.70;2.40;;;21.80;99.90;;;22.22;64.48;101596.91;4939768;28;97439;-76
2023/08/23 02:19:25;;;;;;;3.83;2.20;;;21.80;99.90;;;22.19;64.38;101601.63;4949031;28;109453;-76
2023/08/23 02:21:51;;;;;;;3.37;1.93;;;21.70;99.90;;;22.15;67.08;101590.25;4939867;28;110515;-76
2023/08/23 02:24:17;;;;;;;2.03;1.40;;;21.60;99.90;;;22.15;67.45;101598.31;4937392;28;97490;-76
2023/08/23 02:26:42;;;;;;;2.20;1.70;;;21.70;99.90;;;22.16;67.12;101594.66;4945311;28;104642;-76
2023/08/23 02:29:08;;;;;;;1.10;1.00;;;21.70;99.90;;;22.20;67.84;101598.84;4947960;28;115603;-77
2023/08/23 02:31:34;;;;;;;1.17;1.03;;;21.80;99.90;;;22.23;68.13;101603.97;4938148;28;111973;-77
2023/08/23 02:33:59;;;;;;;1.30;1.20;;;21.90;99.90;;;22.27;67.67;101605.47;4939634;28;98267;-76
2023/08/23 02:36:25;;;;;;;1.60;1.30;;;22.00;99.90;;;22.30;67.25;101604.44;4940381;28;108044;-76
2023/08/23 02:38:51;;;;;;;3.17;1.67;;;22.00;99.90;;;22.32;66.30;101604.31;4938574;28;118444;-76
2023/08/23 02:41:17;;;;;;;1.60;1.50;;;22.00;99.90;;;22.31;66.05;101605.28;4944047;28;104903;-76
2023/08/23 02:43:42;;;;;;;2.33;1.53;;;22.00;99.90;;;22.29;66.66;101601.84;4938808;28;99910;-76
2023/08/23 02:46:08;;;;;;;1.27;1.17;;;22.00;99.90;;;22.32;67.41;101598.94;4951431;28;97577;-76
2023/08/23 02:48:34;;;;;;;1.20;1.10;;;22.00;99.90;;;22.32;67.40;101591.75;4919685;28;117862;-76
2023/08/23 02:51:00;;;;;;;1.63;1.30;;;22.00;99.90;;;22.38;67.03;101593.97;4933904;28;98696;-76
2023/08/23 02:53:26;;;;;;;1.50;1.23;;;22.20;99.90;;;22.42;66.73;101586.56;4939945;28;98619;-76
2023/08/23 02:55:52;;;;;;;1.50;1.40;;;22.20;99.90;;;22.47;66.89;101584.44;4940990;28;98001;-76
2023/08/23 02:58:17;;;;;;;1.40;1.10;;;22.30;99.90;;;22.50;66.83;101578.81;4921809;28;98393;-76
2023/08/23 03:00:43;;;;;;;1.23;1.13;;;22.30;99.90;;;22.51;66.45;101581.41;4921518;28;105672;-76
2023/08/23 03:03:09;;;;;;;1.30;1.17;;;22.30;99.90;;;22.53;66.35;101578.59;4940053;28;97612;-76
2023/08/23 03:05:35;;;;;;;2.27;1.70;;;22.30;99.90;;;22.52;62.27;101582.25;4944183;28;97556;-77
2023/08/23 03:08:01;;;;;;;1.40;1.30;;;22.30;99.90;;;22.50;66.14;101584.19;4940451;28;102626;-76
2023/08/23 03:10:26;;;;;;;2.53;1.40;;;22.20;99.90;;;22.49;66.66;101571.72;4920387;28;121049;-76
2023/08/23 03:12:53;;;;;;;1.80;1.30;;;22.20;99.90;;;22.47;65.80;101573.66;4935810;28;97322;-76
2023/08/23 03:15:19;;;;;;;1.50;1.40;;;22.20;99.90;;;22.46;66.23;101580.03;4940289;28;97551;-76
2023/08/23 03:17:45;;;;;;;1.00;1.00;;;22.20;99.90;;;22.46;66.74;101571.94;4930451;28;100348;-77
2023/08/23 03:20:11;;;;;;;1.63;1.20;;;22.20;99.90;;;22.50;66.58;101570.75;4945911;28;97995;-76
2023/08/23 03:22:37;;;;;;;1.20;1.07;;;22.30;99.90;;;22.53;66.29;101584.84;4941468;28;97106;-77
2023/08/23 03:25:03;;;;;;;1.87;1.10;;;22.30;99.90;;;22.54;65.77;101586.56;4945682;28;98641;-76
2023/08/23 03:27:28;;;;;;;2.47;1.80;;;22.30;99.90;;;22.51;63.42;101580.53;4938374;28;102274;-76
2023/08/23 03:29:54;;;;;;;2.10;1.40;;;22.20;99.90;;;22.47;66.45;101585.28;4943832;28;97214;-76
2023/08/23 03:32:20;;;;;;;1.67;1.10;;;22.20;99.90;;;22.46;66.64;101582.72;4933981;28;97624;-76
2023/08/23 03:34:46;;;;;;;2.93;1.20;;;22.20;99.90;;;22.48;66.84;101580.75;4936754;28;97835;-76
2023/08/23 03:37:12;;;;;;;1.43;1.23;;;22.20;99.90;;;22.48;66.41;101578.06;4938817;28;108742;-76
2023/08/23 03:39:38;;;;;;;1.43;1.30;;;22.30;99.90;;;22.42;63.76;101573.13;4946205;28;97309;-76
2023/08/23 03:42:04;;;;;;;2.03;1.17;;;22.10;99.90;;;22.39;65.63;101576.03;4937657;28;116700;-76
2023/08/23 03:44:30;;;;;;;1.80;1.13;;;22.00;99.90;;;22.37;66.96;101577.97;4946349;28;97853;-76
2023/08/23 03:46:59;;;;;;;1.40;1.23;;;22.00;99.90;;;22.35;66.44;101585.28;4921325;28;105022;-76
2023/08/23 03:49:25;;;;;;;1.33;1.20;;;22.00;99.90;;;22.34;67.17;101583.56;4926926;28;99494;-76
2023/08/23 03:51:51;;;;;;;1.40;1.30;;;22.00;99.90;;;22.34;67.34;101579.06;4943907;28;101479;-76
2023/08/23 03:54:20;;;;;;;3.07;1.43;;;22.00;99.90;;;22.36;67.41;101574.44;4944096;28;97507;-76
2023/08/23 03:56:46;;;;;;;1.27;1.17;;;22.10;99.90;;;22.37;67.02;101572.59;4925850;28;100862;-76
2023/08/23 03:59:12;;;;;;;1.60;1.30;;;22.10;99.90;;;22.40;66.97;101570.53;4942114;28;99326;-76
2023/08/23 04:01:37;;;;;;;1.80;1.33;;;22.20;99.90;;;22.44;66.83;101574.75;4940090;28;105025;-76
2023/08/23 04:04:03;;;;;;;1.60;1.10;;;22.20;99.90;;;22.47;67.14;101568.28;4938848;28;97473;-76
2023/08/23 04:06:29;;;;;;;1.33;1.20;;;22.30;99.90;;;22.51;66.83;101564.41;4942767;28;102478;-76
2023/08/23 04:08:55;;;;;;;1.27;1.10;;;22.30;99.90;;;22.52;66.80;101572.38;4935002;28;113298;-75
2023/08/23 04:11:21;;;;;;;1.07;0.90;;;22.40;99.90;;;22.53;65.91;101575.91;4942004;28;101256;-76
2023/08/23 04:13:46;;;;;;;1.30;1.17;;;22.40;99.90;;;22.53;66.26;101581.28;4931158;28;98562;-76
2023/08/23 04:16:12;;;;;;;1.57;1.47;;;22.40;99.90;;;22.52;66.51;101576.88;4921156;28;98374;-76
2023/08/23 04:18:38;;;;;;;1.20;1.00;;;22.30;99.90;;;22.51;66.59;101572.47;4938257;28;97646;-77
2023/08/23 04:21:04;;;;;;;1.43;1.27;;;22.30;99.90;;;22.54;66.31;101577.63;4941666;28;97567;-76
2023/08/23 04:23:29;;;;;;;1.40;1.30;;;22.30;99.90;;;22.56;66.65;101573.84;4949541;28;97580;-76
2023/08/23 04:25:55;;;;;;;1.43;1.30;;;22.40;99.90;;;22.58;66.28;101571.09;4929829;28;105519;-77
2023/08/23 04:28:22;;;;;;;1.50;1.40;;;22.50;99.90;;;22.63;66.06;101568.91;4945328;28;106611;-77
2023/08/23 04:30:48;;;;;;;1.90;1.20;;;22.50;99.90;;;22.64;65.52;101569.78;4941989;28;120329;-77
2023/08/23 04:33:13;;;;;;;1.30;1.07;;;22.50;99.90;;;22.63;66.04;101574.28;4946406;28;98794;-77
2023/08/23 04:35:39;;;;;;;1.20;1.07;;;22.50;99.90;;;22.64;65.87;101573.31;4952193;28;112070;-76
2023/08/23 04:38:09;;;;;;;1.20;1.10;;;22.50;99.90;;;22.64;65.80;101581.38;4942369;28;105711;-76
2023/08/23 04:40:36;;;;;;;1.87;1.40;;;22.50;99.90;;;22.59;65.81;101588.94;4941235;28;97001;-76
2023/08/23 04:43:02;;;;;;;2.07;1.60;;;22.40;99.90;;;22.55;65.70;101587.41;4944369;28;97085;-76
2023/08/23 04:45:28;;;;;;;1.50;1.40;;;22.30;99.90;;;22.52;66.44;101583.13;4943403;28;98115;-76
2023/08/23 04:47:54;;;;;;;1.20;1.00;;;22.30;99.90;;;22.53;66.37;101583.97;4944555;28;97185;-77
2023/08/23 04:50:20;;;;;;;1.67;1.50;;;22.30;99.90;;;22.56;66.36;101594.50;4939987;28;97638;-77
2023/08/23 04:52:46;;;;;;;1.30;1.20;;;22.40;99.90;;;22.56;66.19;101589.13;4946334;28;98290;-77
2023/08/23 04:55:11;;;;;;;2.43;1.40;;;22.40;99.90;;;22.59;66.22;101585.38;4940007;28;114826;-77
2023/08/23 04:57:37;;;;;;;1.37;1.27;;;22.40;99.90;;;22.59;66.03;101594.31;4940267;28;99575;-77
2023/08/23 05:00:07;;;;;;;1.40;1.30;;;22.40;99.90;;;22.59;66.12;101594.31;4948304;28;97422;-77
2023/08/23 05:02:32;;;;;;;1.30;1.20;;;22.40;99.90;;;22.58;65.97;101597.97;4943860;28;97336;-77
2023/08/23 05:04:58;;;;;;;1.93;1.23;;;22.40;99.90;;;22.58;66.04;101592.59;4941831;28;105240;-77
2023/08/23 05:07:24;;;;;;;1.93;1.60;;;22.40;99.90;;;22.58;66.11;101595.28;4926202;28;106199;-78
2023/08/23 05:09:50;;;;;;;1.57;1.37;;;22.40;99.90;;;22.59;66.19;101596.16;4935526;28;98155;-77
2023/08/23 05:12:16;;;;;;;1.50;1.37;;;22.40;99.90;;;22.58;66.17;101592.59;4945805;28;97835;-77
2023/08/23 05:14:41;;;;;;;1.40;1.30;;;22.40;99.90;;;22.60;66.00;101590.66;4927065;28;101074;-77
2023/08/23 05:17:07;;;;;;;1.07;0.97;;;22.40;99.90;;;22.60;65.98;101592.47;4937425;28;97118;-76
2023/08/23 05:19:33;;;;;;;1.50;1.33;;;22.40;99.90;;;22.60;66.11;101595.16;4946905;28;109838;-77
2023/08/23 05:21:59;;;;;;;1.30;1.20;;;22.50;99.90;;;22.62;65.79;101588.72;4932417;28;98783;-77
2023/08/23 05:24:24;;;;;;;1.50;1.10;;;22.50;99.90;;;22.63;65.74;101587.75;4937516;28;102993;-76
2023/08/23 05:26:50;;;;;;;1.50;1.37;;;22.50;99.90;;;22.66;65.82;101592.03;4947742;28;97545;-76
2023/08/23 05:29:16;;;;;;;1.33;1.10;;;22.50;99.90;;;22.68;65.74;101604.38;4956634;28;97566;-77
2023/08/23 05:31:42;;;;;;;1.20;1.10;;;22.60;99.90;;;22.69;65.63;101600.72;4939294;28;108521;-77
2023/08/23 05:34:08;;;;;;;1.50;1.40;;;22.50;99.90;;;22.71;65.43;101590.75;4939211;28;104110;-77
2023/08/23 05:36:34;;;;;;;3.13;1.20;;;22.60;99.90;;;22.72;65.64;101589.78;4947723;28;98623;-77
2023/08/23 05:39:03;;;;;;;1.53;1.30;;;22.60;99.90;;;22.72;65.56;101589.78;4942805;28;97252;-76
2023/08/23 05:41:29;;;;;;;1.87;1.27;;;22.60;99.90;;;22.73;65.67;101596.88;4945498;28;97544;-77
2023/08/23 05:43:54;;;;;;;1.20;1.00;;;22.60;99.90;;;22.75;65.27;101599.44;4923938;28;98408;-76
2023/08/23 05:46:20;;;;;;;2.67;1.40;;;22.60;99.90;;;22.74;65.40;101587.84;4939534;28;104321;-77
2023/08/23 05:48:48;;;;;;;1.67;1.43;;;22.60;99.90;;;22.76;65.27;101602.03;4926499;28;97317;-77
2023/08/23 05:51:14;;;;;;;1.67;1.38;;;22.60;99.90;;;22.76;65.51;101601.16;4938710;28;99017;-76
2023/08/23 05:53:40;;;;;;;1.67;1.40;;;22.60;99.90;;;22.75;65.42;101600.31;4938679;28;97961;-77
2023/08/23 05:56:06;;;;;;;1.37;1.23;;;22.60;99.90;;;22.78;65.18;101610.84;4943160;28;97739;-77
2023/08/23 05:58:31;;;;;;;1.43;1.20;;;22.70;99.90;;;22.78;65.23;101605.47;4929218;28;97472;-77
2023/08/23 06:00:57;;;;;;;1.80;1.33;;;22.70;99.90;;;22.77;65.33;101603.75;4934078;28;98932;-78
2023/08/23 06:03:23;;;;;;;1.80;1.40;;;22.70;99.90;;;22.78;65.45;101602.78;4934861;28;102256;-77
2023/08/23 06:05:54;;;;;;;1.85;1.30;;;22.70;99.90;;;22.79;65.27;101599.09;4934011;28;99248;-78
2023/08/23 06:08:21;;;;;;;1.77;1.30;;;22.70;99.90;;;22.80;65.16;101603.50;4875371;22;97574;-76
2023/08/23 06:10:50;;;;;;;1.63;1.33;;;22.70;99.90;;;22.81;65.04;101594.47;4856532;28;98462;-76
2023/08/23 06:13:16;;;;;;;1.30;1.20;;;22.70;99.90;;;22.82;64.86;101598.91;4834501;28;100020;-76
2023/08/23 06:15:51;;;;;;;1.67;1.57;;;22.70;99.90;;;22.80;65.21;101599.97;4824275;28;99199;-76
2023/08/23 06:19:15;;;;;;;1.50;1.38;;;22.70;99.90;;;22.77;65.23;101592.97;4794008;28;97541;-76
2023/08/23 06:21:47;;;;;;;1.30;1.20;;;22.70;99.90;;;22.76;65.51;101591.25;4820740;28;98134;-77
2023/08/23 06:24:13;;;;;;;2.88;1.73;;;22.70;99.90;;;22.76;65.60;101596.66;4861435;28;97426;-76
2023/08/23 06:26:39;;;;;;;2.30;1.52;;;22.70;99.90;;;22.77;65.38;101598.38;4929672;28;97359;-77
2023/08/23 06:29:06;;;;;;;1.30;1.20;;;22.70;99.90;;;22.75;65.55;101596.75;4830529;28;107979;-77
2023/08/23 06:31:36;;;;;;;1.50;1.33;;;22.70;99.90;;;22.78;65.26;101592.00;4755481;28;97607;-77
2023/08/23 06:34:02;;;;;;;3.05;1.23;;;22.70;99.90;;;22.76;65.31;101591.25;4821797;28;104637;-75
2023/08/23 06:36:28;;;;;;;1.90;1.67;;;22.70;99.90;;;22.80;65.22;101587.38;4809358;28;98309;-76
2023/08/23 06:38:56;;;;;;;1.40;1.23;;;22.70;99.90;;;22.78;65.06;101586.63;4905063;28;97344;-76
2023/08/23 06:41:34;;;;;;;3.13;1.83;;;22.80;99.90;;;22.82;61.82;101596.22;4870537;28;97381;-76
2023/08/23 06:44:01;;;;;;;1.30;1.15;;;22.70;99.90;;;22.74;64.12;101593.22;4898917;28;98619;-74
2023/08/23 06:46:28;;;;;;;1.35;1.25;;;22.60;99.90;;;22.67;65.38;101607.19;4741716;28;97058;-74
2023/08/23 06:48:55;;;;;;;1.65;1.52;;;22.50;99.90;;;22.67;65.66;101607.19;4843687;28;97115;-76
2023/08/23 06:51:31;;;;;;;2.42;1.80;;;22.50;99.90;;;22.64;65.68;101600.22;4847914;28;97661;-77
2023/08/23 06:53:56;;;;;;;1.47;1.37;;;22.60;99.90;;;22.64;65.80;101600.22;4866413;28;99068;-76
2023/08/23 06:56:22;;;;;;;4.63;3.53;;;22.60;99.90;;;22.67;62.82;101597.28;4941206;28;98235;-76
2023/08/23 06:58:48;;;;;;;3.60;2.87;;;22.60;99.90;;;22.69;64.76;101592.66;4937431;28;97343;-75
2023/08/23 07:01:14;;;;;;;4.40;3.95;;;22.60;99.90;;;22.64;63.95;101596.66;4943216;28;97318;-76
2023/08/23 07:03:41;;;;;;;2.10;1.77;;;22.50;99.90;;;22.66;64.19;101600.97;4943667;28;97944;-76
2023/08/23 07:06:07;;;;;;;1.80;1.70;;;22.50;99.90;;;22.69;65.22;101605.25;4941711;28;97366;-76
2023/08/23 07:08:33;;;;;;;8.60;4.38;;;22.50;99.90;;;22.67;61.84;101608.06;4939198;28;97947;-75
2023/08/23 07:10:59;;;;;;;5.57;4.20;;;22.50;99.90;;;22.67;62.58;101613.44;4941552;28;97191;-75
2023/08/23 07:13:25;;;;;;;6.77;4.40;;;22.50;99.90;;;22.56;61.75;101611.50;4938406;28;99015;-76
2023/08/23 07:15:50;;;;;;;5.93;4.00;;;22.40;99.90;;;22.44;61.70;101616.91;4940547;28;109785;-75
2023/08/23 07:18:16;;;;;;;7.27;4.27;;;22.20;99.90;;;22.39;62.35;101614.53;4942035;28;97419;-76
2023/08/23 07:20:42;;;;;;;4.50;3.97;;;22.10;99.90;;;22.40;62.22;101615.38;4941055;28;104821;-76
2023/08/23 07:23:08;;;;;;;7.80;4.10;;;22.10;99.90;;;22.36;62.13;101614.75;4941803;28;97168;-75
2023/08/23 07:25:33;;;;;;;6.47;4.20;;;22.10;99.90;;;22.39;63.40;101624.41;4939991;28;116011;-75
2023/08/23 07:27:59;;;;;;;5.77;4.00;;;22.10;99.90;;;22.38;62.96;101622.69;4942120;28;109281;-76
2023/08/23 07:30:25;;;;;;;2.07;1.77;;;22.10;99.90;;;22.37;65.99;101620.97;4938161;28;97301;-75
2023/08/23 07:32:51;;;;;;;3.70;1.97;;;22.10;99.90;;;22.44;66.40;101624.97;4939796;28;100227;-75
2023/08/23 07:35:16;;;;;;;2.00;1.60;;;22.20;99.90;;;22.47;66.26;101628.28;4939191;28;99019;-75
2023/08/23 07:37:43;;;;;;;5.13;4.10;;;22.30;99.90;;;22.48;62.28;101634.53;4940870;28;99672;-75
2023/08/23 07:40:09;;;;;;;2.60;1.83;;;22.30;99.90;;;22.54;65.94;101634.09;4924246;28;97265;-77
2023/08/23 07:42:35;;;;;;;4.87;3.70;;;22.40;99.90;;;22.56;63.07;101630.31;4928484;28;98519;-76
2023/08/23 07:45:01;;;;;;;1.73;1.57;;;22.40;99.90;;;22.59;65.71;101631.09;4943194;28;97187;-76
2023/08/23 07:47:27;;;;;;;2.22;1.48;;;22.40;99.90;;;22.63;65.43;101638.81;4936985;28;98223;-76
2023/08/23 07:49:53;;;;;;;2.07;1.60;;;22.50;99.90;;;22.65;65.66;101633.34;4939418;28;104001;-75
2023/08/23 07:52:18;;;;;;;4.97;4.30;;;22.60;99.90;;;22.68;63.01;101647.41;4941842;28;97032;-76
2023/08/23 07:54:44;;;;;;;2.08;1.88;;;22.60;99.90;;;22.70;65.30;101645.47;4934200;28;106558;-76
2023/08/23 07:57:11;;;;;;;2.50;1.83;;;22.60;99.90;;;22.70;65.58;101639.25;4940087;28;97522;-75
2023/08/23 07:59:37;;;;;;;2.75;1.80;;;22.60;99.90;;;22.74;65.30;101646.13;4925502;28;101370;-76
2023/08/23 08:02:03;;;;;;;2.25;1.80;;;22.70;99.90;;;22.75;65.31;101648.72;4922303;28;127640;-75
2023/08/23 08:04:29;;;;;;;1.65;1.50;;;22.70;99.90;;;22.75;65.41;101643.34;4942713;28;99295;-76
2023/08/23 08:06:56;;;;;;;4.43;1.85;;;22.70;99.90;;;22.82;64.90;101649.13;4942505;28;96975;-76
2023/08/23 08:09:22;;;;;;;2.47;1.63;;;22.80;99.90;;;22.81;65.20;101653.66;4945038;28;97957;-75
2023/08/23 08:11:48;;;;;;;2.55;1.80;;;22.80;99.90;;;22.82;64.88;101654.50;4940675;28;99386;-76
2023/08/23 08:14:14;;;;;;;4.50;3.45;;;22.80;99.90;;;22.83;64.50;101653.56;4941499;28;97597;-76
2023/08/23 08:16:39;;;;;;;1.55;1.45;;;22.80;99.90;;;22.85;65.04;101655.16;4941107;28;103197;-76
2023/08/23 08:19:05;;;;;;;3.55;1.98;;;22.80;99.90;;;22.84;65.14;101658.84;4940065;28;103073;-76
2023/08/23 08:21:31;;;;;;;7.00;5.18;;;22.80;99.90;;;22.90;62.28;101659.38;4943415;28;97266;-75
2023/08/23 08:23:58;;;;;;;7.72;5.03;;;22.80;99.90;;;22.91;62.38;101653.03;4941988;28;97282;-76
2023/08/23 08:26:25;;;;;;;6.97;4.30;;;22.80;99.90;;;22.92;61.63;101661.00;4944379;28;98688;-76
2023/08/23 08:28:51;;;;;;;5.07;3.45;;;22.80;99.90;;;22.95;63.21;101660.75;4919771;28;97672;-76
2023/08/23 08:31:17;;;;;;;2.67;2.20;;;22.80;99.90;;;22.85;64.87;101657.00;4924223;28;123038;-76
2023/08/23 08:33:43;;;;;;;1.98;1.60;;;22.80;99.90;;;22.75;65.07;101659.47;4942205;28;104552;-76
2023/08/23 08:36:08;;;;;;;7.25;4.50;;;22.80;99.90;;;22.84;64.63;101647.22;4946105;28;96821;-77
2023/08/23 08:38:34;;;;;;;12.77;4.85;;;22.80;99.90;;;22.94;63.03;101652.81;4945577;28;97464;-75
2023/08/23 08:41:00;;;;;;;7.07;4.57;;;22.90;99.90;;;22.95;63.72;101660.75;4944183;28;119546;-76
2023/08/23 08:43:27;;;;;;;9.07;4.60;;;22.90;99.90;;;22.96;61.63;101658.94;4940191;28;97151;-76
2023/08/23 08:45:52;;;;;;;3.28;1.95;;;22.90;99.90;;;22.93;63.90;101657.31;4922309;28;97475;-75
2023/08/23 08:48:18;;;;;;;1.70;1.50;;;22.90;99.90;;;22.89;64.46;101644.22;4934322;28;97136;-76
2023/08/23 08:50:44;;;;;;;6.38;3.45;;;22.90;99.90;;;22.97;63.70;101655.25;4942214;28;97738;-76
2023/08/23 08:53:15;;;;;;;1.92;1.33;;;22.90;99.90;;;22.97;64.48;101652.56;4944478;28;97211;-75
2023/08/23 08:55:43;;;;;;;2.22;1.58;;;22.90;99.90;;;22.95;64.44;101649.16;4942097;28;97145;-76
2023/08/23 08:58:10;;;;;;;2.03;1.48;;;23.00;99.90;;;22.92;64.48;101652.91;4928263;28;97116;-77
2023/08/23 09:00:38;;;;;;;4.28;2.47;;;22.90;99.90;;;22.93;64.60;101656.47;4942861;28;97031;-76
2023/08/23 09:03:04;;;;;;;1.83;1.73;;;22.90;99.90;;;22.89;64.73;101657.66;4944468;28;114125;-76
2023/08/23 09:05:31;;;;;;;7.15;3.75;;;22.90;99.90;;;22.97;60.06;101652.56;4939998;28;97422;-76
2023/08/23 09:07:57;;;;;;;8.50;3.90;;;23.00;99.90;;;23.04;59.23;101646.66;4940580;28;104623;-76
2023/08/23 09:10:24;;;;;;;6.20;3.40;;;23.00;99.90;;;23.11;58.60;101636.28;4941976;28;102257;-76
2023/08/23 09:12:50;;;;;;;5.03;2.75;;;23.00;99.90;;;23.16;60.26;101636.84;4942680;28;97114;-76
2023/08/23 09:15:23;;;;;;;7.05;3.65;;;23.10;99.90;;;23.19;58.96;101633.91;4942975;28;96912;-76
2023/08/23 09:17:55;;;;;;;5.50;2.72;;;23.10;99.90;;;23.20;60.47;101637.47;4937396;28;97020;-76
2023/08/23 09:20:22;;;;;;;2.25;1.70;;;23.20;99.90;;;23.16;62.49;101636.84;4955725;28;97284;-76
2023/08/23 09:22:52;;;;;;;2.20;1.98;;;23.20;99.90;;;23.06;63.20;101636.63;4924642;28;98442;-76
2023/08/23 09:25:19;;;;;;;6.43;3.63;;;23.10;99.90;;;23.03;63.00;101626.09;4942127;28;97473;-75
2023/08/23 09:27:44;;;;;;;5.22;3.17;;;23.10;99.90;;;23.15;59.73;101622.53;4941800;28;97430;-75
2023/08/23 09:30:12;;;;;;;4.55;2.42;;;23.10;99.90;;;23.09;62.94;101631.03;4926302;28;97351;-76
2023/08/23 09:32:39;;;;;;;1.63;1.35;;;23.10;99.90;;;23.05;63.64;101631.38;4941721;28;98443;-76
2023/08/23 09:35:16;;;;;;;4.15;2.53;;;23.10;99.90;;;23.11;63.66;101618.31;4940079;28;97350;-77
2023/08/23 09:37:43;;;;;;;1.83;1.30;;;23.10;99.90;;;23.07;63.66;101613.28;4935548;28;97169;-76
2023/08/23 09:40:23;;;;;;;3.30;1.92;;;23.10;99.90;;;23.05;63.64;101617.91;4944131;28;97730;-76
2023/08/23 09:42:51;;;;;;;1.13;1.02;;;23.10;99.90;;;23.01;63.93;101611.06;4936713;28;101249;-76
2023/08/23 09:45:22;;;;;;;3.88;2.95;;;23.10;99.90;;;23.01;63.98;101611.06;4926502;28;97557;-76
2023/08/23 09:47:51;;;;;;;4.28;2.55;;;23.10;99.90;;;23.12;62.34;101613.78;4943102;28;97305;-75
2023/08/23 09:50:22;;;;;;;2.42;1.90;;;23.10;99.90;;;23.10;63.62;101610.34;4943451;28;98844;-76
2023/08/23 09:53:12;;;;;;;9.95;3.22;;;23.10;99.90;;;23.18;62.78;101607.97;4923366;28;99508;-76
2023/08/23 09:55:39;;;;;;;2.15;1.75;;;23.10;99.90;;;23.05;63.79;101605.31;4941226;28;97635;-76
2023/08/23 09:58:06;;;;;;;1.52;1.33;;;23.10;99.90;;;22.99;63.90;101602.19;4793141;28;98049;-76
2023/08/23 10:00:34;;;;;;;8.68;2.08;;;23.10;99.90;;;23.01;64.12;101598.47;4845272;28;112374;-76
2023/08/23 10:07:00;;;;;;;1.20;1.10;;;23.10;99.90;;;22.92;64.23;101585.66;4816496;28;97397;-76
2023/08/23 10:09:26;;;;;;;2.67;1.83;;;23.00;99.90;;;22.93;64.60;101591.91;4890537;28;98785;-75
2023/08/23 10:11:52;;;;;;;2.95;2.20;;;23.00;99.90;;;22.95;64.31;101589.94;4928041;28;97689;-75
2023/08/23 10:14:19;;;;;;;10.45;2.60;;;23.00;99.90;;;23.14;60.42;101590.31;4914140;28;99436;-75